Time;durP1;ratioP1;P1;durP2;ratioP2;P2;SDS_P1;SDS_P2;PMS_P1;PMS_P2;Temp;Humidity;BMP_temperature;BMP_pressure;BME280_temperature;BME280_humidity;BME280_pressure;Samples;Min_cycle;Max_cycle;Signal;HPM_P1;HPM_P2
2021/04/30 00:02:15;;;;;;;10.95;7.07;;;16.70;96.70;;;;;;4945753;28;20043;-76
2021/04/30 00:04:43;;;;;;;9.68;6.93;;;16.70;96.70;;;;;;4943148;28;20050;-76
2021/04/30 00:07:11;;;;;;;13.48;7.03;;;16.80;96.70;;;;;;4945267;28;20038;-76
2021/04/30 00:09:40;;;;;;;9.63;6.60;;;16.80;96.70;;;;;;4942506;28;20058;-76
2021/04/30 00:12:08;;;;;;;9.75;6.82;;;16.80;96.70;;;;;;4960626;28;20043;-76
2021/04/30 00:14:36;;;;;;;10.02;6.00;;;16.70;96.70;;;;;;4955322;28;20049;-76
2021/04/30 00:17:04;;;;;;;7.93;6.53;;;16.60;96.70;;;;;;4960054;28;20055;-76
2021/04/30 00:19:33;;;;;;;8.93;5.78;;;16.60;96.70;;;;;;4924905;28;20456;-76
2021/04/30 00:22:01;;;;;;;11.05;6.55;;;16.60;96.70;;;;;;4959092;28;20043;-76
2021/04/30 00:24:30;;;;;;;11.75;6.28;;;16.70;96.70;;;;;;4928093;28;20098;-76
2021/04/30 00:27:01;;;;;;;8.43;5.72;;;16.70;96.70;;;;;;4950138;28;20043;-76
2021/04/30 00:29:29;;;;;;;9.75;6.32;;;16.70;96.70;;;;;;4947532;28;20133;-76
2021/04/30 00:32:01;;;;;;;9.10;5.32;;;16.70;96.70;;;;;;4949925;28;20045;-76
2021/04/30 00:38:44;;;;;;;9.98;6.85;;;16.60;96.70;;;;;;4961464;28;20494;-76
2021/04/30 00:53:34;;;;;;;5.35;4.43;;;16.50;96.70;;;;;;4954833;28;20056;-76
2021/04/30 01:04:07;;;;;;;5.53;3.40;;;16.50;96.70;;;;;;4884325;29;20059;-81
2021/04/30 01:10:42;;;;;;;5.45;3.08;;;16.50;96.70;;;;;;4882603;29;20266;-76
2021/04/30 01:13:12;;;;;;;6.03;3.45;;;16.50;96.70;;;;;;4868494;29;20049;-76
2021/04/30 01:15:41;;;;;;;4.90;2.88;;;16.50;96.70;;;;;;4868716;29;20051;-76
2021/04/30 01:18:09;;;;;;;4.47;2.60;;;16.50;96.70;;;;;;4868234;29;20136;-76
2021/04/30 01:20:37;;;;;;;4.50;2.70;;;16.50;96.70;;;;;;4868550;29;20116;-76
2021/04/30 01:23:07;;;;;;;4.95;2.65;;;16.40;96.70;;;;;;4883472;29;20508;-76
2021/04/30 01:25:38;;;;;;;7.80;3.00;;;16.40;96.70;;;;;;4863251;29;20076;-76
2021/04/30 01:28:07;;;;;;;6.72;2.50;;;16.40;96.70;;;;;;4868789;29;20087;-76
2021/04/30 01:30:37;;;;;;;4.72;2.47;;;16.40;96.70;;;;;;4847020;29;20052;-76
2021/04/30 01:33:16;;;;;;;4.45;2.92;;;16.40;96.70;;;;;;4906201;28;20059;-76
2021/04/30 01:35:45;;;;;;;4.88;2.53;;;16.40;96.70;;;;;;4943523;28;20058;-76
2021/04/30 01:38:15;;;;;;;4.70;2.28;;;16.40;96.70;;;;;;4948232;28;20058;-76
2021/04/30 01:40:44;;;;;;;6.32;2.40;;;16.30;96.70;;;;;;4946216;28;20627;-76
2021/04/30 01:43:16;;;;;;;5.20;2.40;;;16.30;96.70;;;;;;4932536;28;20070;-76
2021/04/30 01:45:52;;;;;;;6.10;2.35;;;16.30;96.70;;;;;;4963172;28;20137;-76
2021/04/30 01:48:24;;;;;;;5.43;2.35;;;16.30;96.70;;;;;;4947110;28;20050;-76
2021/04/30 01:50:53;;;;;;;4.53;2.20;;;16.30;96.70;;;;;;4944942;28;20438;-76
2021/04/30 01:53:59;;;;;;;5.30;2.40;;;16.30;96.70;;;;;;4953969;28;20496;-76
2021/04/30 02:17:31;;;;;;;4.43;1.85;;;16.20;96.70;;;;;;4884427;29;20064;-76
2021/04/30 02:36:42;;;;;;;3.47;1.63;;;16.10;96.70;;;;;;4882934;29;20125;-76
2021/04/30 03:21:10;;;;;;;4.32;1.90;;;15.90;96.70;;;;;;4938922;28;20720;-76
2021/04/30 03:32:08;;;;;;;3.45;1.48;;;15.90;96.70;;;;;;4918448;29;20063;-76
2021/04/30 03:36:05;;;;;;;2.72;1.27;;;15.90;96.70;;;;;;4876621;29;20888;-76
2021/04/30 03:38:35;;;;;;;3.72;1.70;;;16.00;96.70;;;;;;4860738;29;20307;-77
2021/04/30 03:42:33;;;;;;;5.72;2.05;;;15.90;96.70;;;;;;4789582;29;20274;-76
2021/04/30 03:49:07;;;;;;;4.32;2.10;;;15.90;96.70;;;;;;4786478;29;20201;-76
2021/04/30 03:53:05;;;;;;;7.15;2.05;;;15.80;96.70;;;;;;4755184;30;20070;-76
2021/04/30 04:04:02;;;;;;;2.90;1.63;;;15.90;96.70;;;;;;4689015;30;20100;-76
2021/04/30 04:08:01;;;;;;;5.75;1.95;;;15.80;96.70;;;;;;4670202;30;20531;-76
2021/04/30 04:23:05;;;;;;;7.75;1.92;;;15.70;96.70;;;;;;4601868;31;20161;-76
2021/04/30 04:33:52;;;;;;;3.67;1.42;;;15.70;96.70;;;;;;4636531;30;20042;-75
2021/04/30 04:57:18;;;;;;;6.95;2.00;;;15.60;96.70;;;;;;4923596;29;20061;-75
2021/04/30 04:59:46;;;;;;;4.22;1.33;;;15.50;96.70;;;;;;4940457;28;20044;-76
2021/04/30 05:02:14;;;;;;;2.55;1.38;;;15.60;96.70;;;;;;4921812;29;20647;-76
2021/04/30 05:04:45;;;;;;;5.85;2.08;;;15.60;96.70;;;;;;4926160;29;20548;-75
2021/04/30 05:07:13;;;;;;;7.05;1.98;;;15.60;96.70;;;;;;4937932;29;20047;-74
2021/04/30 05:09:41;;;;;;;6.30;2.00;;;15.60;96.70;;;;;;4907174;29;20344;-74
2021/04/30 05:12:10;;;;;;;6.35;2.30;;;15.50;96.70;;;;;;4919850;29;20067;-74
2021/04/30 05:14:39;;;;;;;7.45;2.15;;;15.50;96.70;;;;;;4918147;29;20044;-74
2021/04/30 05:17:08;;;;;;;6.25;1.70;;;15.60;96.70;;;;;;4925146;29;20108;-74
2021/04/30 05:19:36;;;;;;;6.00;1.95;;;15.60;96.70;;;;;;4925600;28;20040;-74
2021/04/30 05:22:22;;;;;;;4.95;1.92;;;15.70;96.70;;;;;;4928854;29;20039;-74
2021/04/30 05:24:50;;;;;;;4.53;2.30;;;15.80;96.70;;;;;;4922374;29;20052;-74
2021/04/30 05:27:18;;;;;;;3.45;1.90;;;15.80;96.70;;;;;;4956522;28;20047;-74
2021/04/30 05:29:47;;;;;;;4.43;2.13;;;15.90;96.70;;;;;;4963895;28;20047;-74
2021/04/30 05:32:16;;;;;;;5.93;1.95;;;15.90;96.70;;;;;;4945946;28;20044;-74
2021/04/30 05:34:45;;;;;;;2.50;1.50;;;16.00;96.70;;;;;;4946078;28;20051;-74
2021/04/30 05:37:12;;;;;;;2.83;1.60;;;16.00;96.70;;;;;;4966079;28;20047;-74
2021/04/30 05:39:40;;;;;;;6.32;1.73;;;16.00;96.70;;;;;;4959271;28;20043;-74
2021/04/30 05:42:08;;;;;;;5.80;2.13;;;16.10;96.70;;;;;;4950681;28;20035;-74
2021/04/30 05:44:37;;;;;;;6.78;1.55;;;16.10;96.70;;;;;;4960061;28;20402;-74
2021/04/30 05:47:06;;;;;;;5.25;1.98;;;16.20;96.70;;;;;;4949184;28;20042;-74
2021/04/30 05:49:34;;;;;;;3.25;1.75;;;16.30;96.70;;;;;;4930737;28;20507;-74
2021/04/30 05:52:01;;;;;;;5.45;2.05;;;16.40;96.70;;;;;;4963842;28;20512;-74
2021/04/30 05:54:31;;;;;;;7.30;2.00;;;16.40;96.70;;;;;;4940509;28;20050;-74
2021/04/30 05:56:59;;;;;;;3.42;1.50;;;16.40;96.70;;;;;;4961218;28;20544;-74
2021/04/30 05:59:26;;;;;;;4.53;1.70;;;16.30;96.70;;;;;;4944538;28;20054;-74
2021/04/30 06:01:54;;;;;;;4.35;1.85;;;16.30;96.70;;;;;;4938882;28;20045;-74
2021/04/30 06:04:25;;;;;;;6.20;1.90;;;16.30;96.70;;;;;;4945136;28;20042;-74
2021/04/30 06:06:53;;;;;;;2.95;1.60;;;16.40;96.70;;;;;;4945609;28;20125;-74
2021/04/30 06:09:21;;;;;;;7.43;1.80;;;16.30;96.70;;;;;;4944023;28;20431;-74
2021/04/30 06:11:49;;;;;;;3.50;1.80;;;16.30;96.70;;;;;;4946771;28;20575;-74
2021/04/30 06:14:18;;;;;;;5.20;1.77;;;16.40;96.70;;;;;;4932985;28;20097;-74
2021/04/30 06:16:47;;;;;;;6.25;2.22;;;16.40;96.70;;;;;;4944475;28;20102;-74
2021/04/30 06:19:15;;;;;;;4.38;1.63;;;16.60;96.70;;;;;;4944075;28;20513;-74
2021/04/30 06:21:46;;;;;;;3.42;1.90;;;16.70;96.70;;;;;;4959593;28;20054;-74
2021/04/30 06:24:14;;;;;;;4.65;2.10;;;16.80;96.70;;;;;;4943391;28;20306;-74
2021/04/30 06:26:41;;;;;;;5.35;1.40;;;16.80;96.70;;;;;;4943771;28;20063;-74
2021/04/30 06:29:09;;;;;;;6.75;1.95;;;16.90;96.70;;;;;;4939468;28;20428;-74
2021/04/30 06:31:38;;;;;;;4.68;1.92;;;16.90;96.70;;;;;;4931126;29;20198;-74
2021/04/30 06:34:07;;;;;;;7.40;1.90;;;17.00;96.70;;;;;;4944740;28;20069;-74
2021/04/30 06:36:35;;;;;;;4.63;1.70;;;17.00;96.70;;;;;;4941151;28;20054;-75
2021/04/30 06:39:05;;;;;;;5.90;1.88;;;17.10;96.70;;;;;;4942074;29;20069;-74
2021/04/30 06:41:33;;;;;;;5.07;1.67;;;17.20;96.70;;;;;;4940117;28;20580;-74
2021/04/30 06:44:01;;;;;;;3.70;1.63;;;17.30;96.70;;;;;;4957675;28;20070;-74
2021/04/30 06:46:29;;;;;;;7.25;1.80;;;17.30;96.70;;;;;;4942560;28;20190;-74
2021/04/30 06:48:57;;;;;;;4.28;1.67;;;17.40;96.70;;;;;;4942620;28;20481;-74
2021/04/30 06:51:25;;;;;;;5.63;1.48;;;17.40;96.70;;;;;;4945871;28;20136;-74
2021/04/30 06:53:53;;;;;;;4.47;1.73;;;17.50;96.70;;;;;;4941543;28;20960;-74
2021/04/30 06:56:25;;;;;;;6.40;1.55;;;17.60;96.70;;;;;;4942478;28;20049;-74
2021/04/30 06:58:53;;;;;;;5.43;1.30;;;17.60;96.70;;;;;;4935789;28;20052;-76
2021/04/30 07:01:21;;;;;;;2.50;1.38;;;17.70;96.70;;;;;;4942172;29;20046;-75
2021/04/30 07:03:49;;;;;;;5.30;1.48;;;17.80;96.70;;;;;;4941901;28;20050;-75
2021/04/30 07:06:19;;;;;;;3.95;1.27;;;17.90;96.70;;;;;;4939396;28;20039;-75
2021/04/30 07:08:47;;;;;;;6.85;1.38;;;17.80;96.70;;;;;;4937959;28;20050;-75
2021/04/30 07:11:15;;;;;;;3.33;1.23;;;17.80;96.70;;;;;;4937784;28;20039;-75
2021/04/30 07:13:44;;;;;;;3.30;1.20;;;17.90;96.70;;;;;;4941735;28;20061;-74
2021/04/30 07:16:12;;;;;;;5.50;1.70;;;18.00;96.70;;;;;;4941872;28;20043;-75
2021/04/30 07:18:40;;;;;;;3.35;1.30;;;18.00;96.70;;;;;;4923557;29;20054;-75
2021/04/30 07:21:09;;;;;;;4.35;1.20;;;18.10;96.70;;;;;;4940687;28;20035;-75
2021/04/30 07:23:37;;;;;;;5.07;1.30;;;18.20;96.70;;;;;;4926727;29;20047;-75
2021/04/30 07:26:04;;;;;;;3.72;1.52;;;18.20;96.70;;;;;;4944178;28;20113;-74
2021/04/30 07:28:32;;;;;;;6.97;1.30;;;18.30;96.70;;;;;;4934166;28;20054;-75
2021/04/30 07:31:02;;;;;;;5.30;1.63;;;18.40;96.70;;;;;;4963925;28;20043;-75
2021/04/30 07:33:31;;;;;;;3.72;1.30;;;18.40;96.70;;;;;;4948088;28;20049;-75
2021/04/30 07:36:04;;;;;;;4.85;1.20;;;18.50;96.70;;;;;;4948043;28;20385;-76
2021/04/30 07:38:33;;;;;;;4.47;1.30;;;18.50;96.70;;;;;;4952603;28;20045;-75
2021/04/30 07:41:04;;;;;;;4.57;1.60;;;18.50;96.70;;;;;;4945365;28;20047;-75
2021/04/30 07:43:32;;;;;;;5.03;1.48;;;18.70;96.70;;;;;;4961892;28;20473;-75
2021/04/30 07:46:02;;;;;;;4.07;1.17;;;19.00;96.70;;;;;;4963315;28;20058;-75
2021/04/30 07:48:30;;;;;;;2.55;1.00;;;19.10;96.70;;;;;;4929840;28;20515;-75
2021/04/30 07:51:02;;;;;;;5.38;1.42;;;19.20;96.70;;;;;;4967604;28;20377;-74
2021/04/30 07:53:33;;;;;;;3.28;1.23;;;19.50;96.70;;;;;;4947289;28;20035;-76
2021/04/30 07:56:01;;;;;;;7.43;1.70;;;19.70;96.70;;;;;;4933667;28;20051;-76
2021/04/30 07:58:30;;;;;;;1.92;0.90;;;19.70;96.70;;;;;;4964847;28;20540;-79
2021/04/30 08:00:59;;;;;;;2.63;1.15;;;19.70;96.70;;;;;;4963345;28;20158;-78
2021/04/30 08:03:28;;;;;;;4.05;1.27;;;19.80;96.70;;;;;;4952266;28;20420;-78
2021/04/30 08:05:56;;;;;;;4.00;1.10;;;19.80;96.70;;;;;;4962020;28;20055;-79
2021/04/30 08:08:24;;;;;;;5.78;1.00;;;19.90;96.70;;;;;;4947807;28;20113;-80
2021/04/30 08:10:52;;;;;;;6.43;1.67;;;19.90;96.70;;;;;;4949381;28;21131;-82
2021/04/30 08:13:20;;;;;;;5.75;1.42;;;20.00;96.70;;;;;;4933939;28;20575;-82
2021/04/30 08:15:47;;;;;;;3.45;1.20;;;20.00;96.70;;;;;;4964131;28;20515;-82
2021/04/30 08:18:15;;;;;;;6.78;1.75;;;20.10;96.70;;;;;;4960000;28;20716;-78
2021/04/30 08:20:44;;;;;;;4.82;1.10;;;20.30;96.70;;;;;;4966111;28;20124;-77
2021/04/30 08:23:13;;;;;;;4.28;1.30;;;20.40;96.70;;;;;;4939988;28;20050;-76
2021/04/30 08:25:41;;;;;;;6.20;1.77;;;20.50;96.70;;;;;;4957290;28;20266;-78
2021/04/30 08:28:09;;;;;;;5.53;1.10;;;20.50;96.70;;;;;;4932855;28;20043;-76
2021/04/30 08:30:37;;;;;;;3.83;1.27;;;20.40;96.70;;;;;;4963637;28;20161;-76
2021/04/30 08:33:05;;;;;;;6.70;1.23;;;20.40;96.70;;;;;;4962291;28;20046;-77
2021/04/30 08:35:33;;;;;;;4.85;1.25;;;20.40;96.70;;;;;;4947960;28;20042;-78
2021/04/30 08:38:04;;;;;;;4.22;1.40;;;20.60;96.70;;;;;;4928549;28;20055;-77
2021/04/30 08:40:32;;;;;;;1.92;0.85;;;20.60;96.70;;;;;;4961429;28;20166;-76
2021/04/30 08:43:01;;;;;;;3.72;1.50;;;20.60;96.70;;;;;;4947710;28;20071;-77
2021/04/30 08:45:29;;;;;;;4.03;0.98;;;20.50;96.70;;;;;;4962493;28;20047;-76
2021/04/30 08:47:57;;;;;;;8.18;1.00;;;20.60;96.70;;;;;;4964178;28;20725;-76
2021/04/30 08:50:25;;;;;;;3.08;1.00;;;20.70;96.70;;;;;;4947014;28;20051;-79
2021/04/30 08:52:53;;;;;;;4.28;1.35;;;20.90;96.70;;;;;;4942922;28;20066;-78
2021/04/30 08:55:24;;;;;;;4.60;1.45;;;20.90;96.70;;;;;;4932837;28;20070;-78
2021/04/30 08:57:54;;;;;;;4.03;1.00;;;20.90;96.70;;;;;;4944871;28;20075;-77
2021/04/30 09:00:25;;;;;;;4.90;1.73;;;20.80;96.70;;;;;;4965874;28;20117;-79
2021/04/30 09:02:55;;;;;;;4.80;1.27;;;20.70;96.70;;;;;;4961786;28;20280;-77
2021/04/30 09:05:24;;;;;;;4.95;1.55;;;20.60;96.70;;;;;;4957391;28;20132;-77
2021/04/30 09:07:54;;;;;;;3.53;1.00;;;20.50;96.70;;;;;;4944694;28;20496;-78
2021/04/30 09:10:25;;;;;;;5.85;1.40;;;20.50;96.70;;;;;;4963315;28;20493;-77
2021/04/30 09:13:07;;;;;;;2.63;1.00;;;20.60;96.70;;;;;;4962149;28;20057;-78
2021/04/30 09:15:36;;;;;;;4.57;1.27;;;20.80;96.70;;;;;;4958347;28;20050;-78
2021/04/30 09:18:18;;;;;;;5.70;1.33;;;20.70;96.70;;;;;;4944714;28;20122;-74
2021/04/30 09:20:48;;;;;;;6.93;1.65;;;20.70;96.70;;;;;;4963724;28;20137;-74
2021/04/30 09:23:38;;;;;;;4.70;1.08;;;20.70;96.70;;;;;;4963970;28;20046;-75
2021/04/30 09:26:23;;;;;;;5.35;1.67;;;20.80;96.70;;;;;;4940122;28;20066;-74
2021/04/30 09:28:59;;;;;;;4.45;1.70;;;20.90;96.70;;;;;;4943851;28;20055;-74
2021/04/30 09:31:48;;;;;;;4.95;1.20;;;20.90;96.70;;;;;;4940315;28;20548;-74
2021/04/30 09:34:19;;;;;;;4.68;1.38;;;21.20;96.70;;;;;;4944483;28;20090;-74
2021/04/30 09:37:01;;;;;;;4.20;1.02;;;21.20;96.70;;;;;;4939402;28;20523;-74
2021/04/30 09:39:46;;;;;;;4.65;1.23;;;21.30;96.70;;;;;;4941671;28;20552;-74
2021/04/30 09:42:17;;;;;;;6.00;1.23;;;21.40;96.70;;;;;;4942142;28;20043;-75
2021/04/30 09:44:47;;;;;;;3.83;1.10;;;21.60;96.70;;;;;;4939656;28;20210;-74
2021/04/30 09:47:21;;;;;;;3.05;1.15;;;21.50;96.70;;;;;;4941747;28;20047;-74
2021/04/30 09:49:51;;;;;;;4.82;1.58;;;21.40;96.70;;;;;;4923186;28;20145;-75
2021/04/30 09:52:20;;;;;;;4.88;1.17;;;21.30;96.70;;;;;;4943301;28;20047;-74
2021/04/30 09:54:49;;;;;;;3.45;1.60;;;21.40;96.70;;;;;;4924946;28;20067;-75
2021/04/30 09:57:21;;;;;;;5.03;1.08;;;21.50;96.70;;;;;;4945314;28;20039;-74
2021/04/30 09:59:58;;;;;;;4.15;1.08;;;21.70;96.70;;;;;;4941466;28;20063;-75
2021/04/30 10:02:27;;;;;;;3.78;1.45;;;21.90;96.70;;;;;;4945264;28;20125;-75
2021/04/30 10:04:57;;;;;;;6.38;1.58;;;22.10;96.70;;;;;;4939124;28;20176;-74
2021/04/30 10:07:30;;;;;;;3.25;1.00;;;22.00;96.70;;;;;;4943143;28;20062;-74
2021/04/30 10:10:08;;;;;;;7.70;1.15;;;21.80;96.70;;;;;;4954785;28;20047;-75
2021/04/30 10:12:39;;;;;;;2.40;0.90;;;21.80;96.70;;;;;;4946697;28;20161;-75
2021/04/30 10:15:09;;;;;;;4.57;1.15;;;21.90;96.70;;;;;;4941298;28;20070;-75
2021/04/30 10:17:38;;;;;;;5.13;1.27;;;21.80;96.70;;;;;;4929148;29;20051;-74
2021/04/30 10:20:08;;;;;;;5.68;1.20;;;21.80;96.70;;;;;;4943561;28;20043;-74
2021/04/30 10:22:39;;;;;;;5.47;1.10;;;21.70;96.70;;;;;;4940203;28;20035;-75
2021/04/30 10:25:19;;;;;;;4.55;1.20;;;21.70;96.70;;;;;;4942037;28;20613;-74
2021/04/30 10:27:49;;;;;;;4.63;1.10;;;21.90;96.70;;;;;;4926260;29;20385;-74
2021/04/30 10:30:22;;;;;;;4.18;1.38;;;21.90;96.70;;;;;;4924747;29;20051;-74
2021/04/30 10:32:53;;;;;;;4.28;1.52;;;21.80;96.70;;;;;;4923273;29;20135;-75
2021/04/30 10:35:28;;;;;;;4.75;1.52;;;21.90;96.70;;;;;;4923094;29;20135;-75
2021/04/30 10:38:05;;;;;;;4.55;1.30;;;21.90;96.70;;;;;;4901874;29;20048;-75
2021/04/30 10:40:33;;;;;;;4.60;1.20;;;21.80;96.70;;;;;;4923530;29;20067;-75
2021/04/30 10:43:20;;;;;;;3.35;1.30;;;21.80;96.70;;;;;;4920869;29;20090;-74
2021/04/30 10:45:58;;;;;;;;;;;21.80;96.70;;;;;;4926693;29;20050;-75
2021/04/30 10:48:26;;;;;;;6.28;1.85;;;21.70;96.70;;;;;;4920797;29;20029;-75
2021/04/30 10:51:07;;;;;;;3.25;1.27;;;21.70;96.70;;;;;;4929240;29;20056;-75
2021/04/30 10:53:36;;;;;;;3.13;1.20;;;21.90;96.70;;;;;;4921470;29;20047;-74
2021/04/30 10:56:26;;;;;;;4.75;1.33;;;21.90;96.50;;;;;;4923299;29;20505;-74
2021/04/30 10:58:55;;;;;;;5.13;1.55;;;22.00;96.30;;;;;;4925989;29;20048;-74
2021/04/30 11:01:27;;;;;;;4.45;1.50;;;22.20;95.80;;;;;;4920650;29;20517;-74
2021/04/30 11:04:16;;;;;;;5.70;1.25;;;22.30;95.40;;;;;;4924052;29;20042;-74
2021/04/30 11:06:47;;;;;;;5.35;1.13;;;22.60;95.60;;;;;;4917250;29;20079;-74
2021/04/30 11:09:20;;;;;;;9.05;1.55;;;22.70;94.40;;;;;;4917393;29;20040;-74
2021/04/30 11:11:48;;;;;;;4.78;1.80;;;22.60;94.00;;;;;;4923546;29;20039;-74
2021/04/30 11:14:37;;;;;;;5.47;1.75;;;22.70;94.50;;;;;;4922833;29;20660;-75
2021/04/30 11:17:05;;;;;;;5.05;1.52;;;22.90;94.20;;;;;;4917074;29;20149;-74
2021/04/30 11:19:45;;;;;;;6.07;1.20;;;22.90;93.60;;;;;;4918072;29;20048;-75
2021/04/30 11:22:14;;;;;;;4.78;1.50;;;22.80;94.20;;;;;;4934298;29;20039;-74
2021/04/30 11:24:45;;;;;;;4.32;1.50;;;22.90;93.90;;;;;;4923131;29;20036;-74
2021/04/30 11:27:31;;;;;;;5.15;1.33;;;22.90;94.40;;;;;;4951733;28;20166;-74
2021/04/30 11:30:17;;;;;;;;;;;22.80;93.90;;;;;;4955978;28;20050;-74
2021/04/30 11:32:57;;;;;;;7.65;1.70;;;22.70;94.10;;;;;;4929132;28;19933;-75
2021/04/30 11:35:27;;;;;;;6.72;1.63;;;22.80;93.40;;;;;;4955565;28;20106;-74
2021/04/30 11:37:56;;;;;;;6.68;1.40;;;22.80;93.00;;;;;;4927533;28;20045;-74
2021/04/30 11:40:39;;;;;;;6.07;1.40;;;22.90;93.10;;;;;;4944465;28;20051;-74
2021/04/30 11:43:07;;;;;;;2.63;1.33;;;22.90;93.70;;;;;;4945116;28;20043;-74
2021/04/30 11:45:38;;;;;;;6.45;1.40;;;22.80;93.40;;;;;;4957630;28;20147;-74
2021/04/30 11:48:06;;;;;;;4.07;1.05;;;22.90;93.40;;;;;;4945869;28;20416;-74
2021/04/30 11:50:34;;;;;;;2.42;1.05;;;22.90;93.80;;;;;;4960504;28;20031;-74
2021/04/30 11:53:12;;;;;;;3.47;1.15;;;23.10;93.70;;;;;;4963148;28;20073;-74
2021/04/30 11:55:41;;;;;;;5.38;1.58;;;23.40;93.40;;;;;;4944475;28;20062;-74
2021/04/30 11:58:09;;;;;;;4.03;1.17;;;23.70;91.40;;;;;;4943531;28;20125;-74
2021/04/30 12:00:38;;;;;;;4.50;1.50;;;23.80;91.20;;;;;;4944559;28;20043;-74
2021/04/30 12:03:08;;;;;;;3.58;1.30;;;23.80;90.70;;;;;;4940590;28;20594;-74
2021/04/30 12:05:37;;;;;;;3.42;1.42;;;23.90;90.90;;;;;;4940616;28;20094;-74
2021/04/30 12:08:05;;;;;;;3.90;1.30;;;24.00;90.90;;;;;;4943789;28;20126;-74
2021/04/30 12:10:34;;;;;;;3.85;0.95;;;24.30;91.30;;;;;;4960942;28;20039;-75
2021/04/30 12:13:06;;;;;;;3.75;1.23;;;24.30;91.10;;;;;;4958457;28;20142;-74
2021/04/30 12:15:38;;;;;;;4.47;1.27;;;24.10;91.90;;;;;;4965130;28;20042;-74
2021/04/30 12:18:07;;;;;;;3.60;1.30;;;24.10;91.50;;;;;;4963783;28;20050;-74
2021/04/30 12:20:37;;;;;;;4.88;1.63;;;24.40;90.70;;;;;;4947065;28;20035;-74
2021/04/30 12:23:06;;;;;;;4.95;1.55;;;24.50;90.50;;;;;;4957502;28;20050;-74
2021/04/30 12:25:40;;;;;;;4.47;1.30;;;24.60;89.80;;;;;;4960663;28;20145;-75
2021/04/30 12:28:17;;;;;;;6.60;1.48;;;24.70;90.80;;;;;;4947377;28;20054;-74
2021/04/30 12:30:47;;;;;;;5.10;1.20;;;24.60;90.60;;;;;;4942893;28;20066;-74
2021/04/30 12:33:23;;;;;;;3.50;1.00;;;24.80;91.00;;;;;;4944716;28;20043;-74
2021/04/30 12:35:54;;;;;;;6.90;1.67;;;24.70;89.50;;;;;;4962009;28;20054;-74
2021/04/30 12:38:22;;;;;;;3.92;1.15;;;24.60;90.20;;;;;;4945816;28;20038;-74
2021/04/30 12:40:51;;;;;;;3.50;1.60;;;24.60;90.00;;;;;;4952586;28;20058;-74
2021/04/30 12:43:24;;;;;;;2.72;1.10;;;24.50;89.80;;;;;;4932895;28;20133;-74
2021/04/30 12:45:53;;;;;;;4.47;1.25;;;24.20;90.00;;;;;;4964033;28;20051;-74
2021/04/30 12:48:25;;;;;;;5.80;1.17;;;24.20;89.70;;;;;;4961339;28;20074;-73
2021/04/30 12:50:56;;;;;;;3.72;1.02;;;24.00;89.50;;;;;;4960953;28;20076;-74
2021/04/30 12:53:27;;;;;;;1.65;1.20;;;24.00;90.80;;;;;;4960397;28;20053;-74
2021/04/30 12:55:55;;;;;;;5.72;1.25;;;24.00;90.70;;;;;;4949176;28;20094;-74
2021/04/30 12:58:23;;;;;;;3.88;1.27;;;23.90;89.80;;;;;;4960581;28;20041;-74
2021/04/30 13:01:00;;;;;;;2.50;1.10;;;23.70;90.70;;;;;;4932044;28;20110;-74
2021/04/30 13:03:40;;;;;;;4.40;1.42;;;23.70;89.80;;;;;;4946056;28;20416;-74
2021/04/30 13:06:11;;;;;;;5.60;1.55;;;23.70;90.40;;;;;;4943060;28;20111;-74
2021/04/30 13:08:40;;;;;;;4.00;1.58;;;23.70;90.40;;;;;;4961750;28;20047;-74
2021/04/30 13:11:13;;;;;;;3.40;1.17;;;23.60;91.50;;;;;;4945790;28;20113;-74
2021/04/30 13:14:01;;;;;;;4.43;1.58;;;23.50;91.50;;;;;;4946341;28;20535;-74
2021/04/30 13:16:43;;;;;;;5.70;1.50;;;23.40;91.40;;;;;;4960380;28;20444;-74
2021/04/30 13:19:14;;;;;;;7.35;1.48;;;23.50;92.00;;;;;;4964136;28;20839;-74
2021/04/30 13:21:44;;;;;;;5.90;1.60;;;23.40;91.20;;;;;;4958497;28;20039;-74
2021/04/30 13:24:14;;;;;;;3.83;1.35;;;23.50;91.80;;;;;;4955674;28;20546;-74
2021/04/30 13:26:53;;;;;;;2.45;1.33;;;23.70;91.00;;;;;;4959496;28;20468;-74
2021/04/30 13:29:21;;;;;;;5.65;1.52;;;23.90;90.70;;;;;;4943788;28;20050;-74
2021/04/30 13:32:09;;;;;;;4.47;1.48;;;24.00;90.70;;;;;;4946383;28;20066;-74
2021/04/30 13:34:44;;;;;;;5.18;1.50;;;24.10;89.20;;;;;;4941221;28;20130;-74
2021/04/30 13:37:17;;;;;;;10.00;2.22;;;24.00;89.80;;;;;;4958859;28;20043;-74
2021/04/30 13:39:46;;;;;;;9.00;1.80;;;23.90;89.90;;;;;;4945649;28;20045;-74
2021/04/30 13:42:20;;;;;;;32.72;4.15;;;23.60;90.30;;;;;;4957213;28;20122;-74
2021/04/30 13:44:49;;;;;;;8.60;1.88;;;23.50;91.50;;;;;;4962582;28;20449;-74
2021/04/30 13:47:17;;;;;;;82.05;12.05;;;23.40;91.70;;;;;;4951274;28;20057;-74
2021/04/30 13:49:51;;;;;;;7.45;2.40;;;23.40;91.70;;;;;;4961996;28;20526;-74
2021/04/30 13:52:20;;;;;;;8.68;1.80;;;23.30;92.10;;;;;;4962748;28;20129;-74
2021/04/30 13:54:47;;;;;;;9.90;2.03;;;23.30;92.70;;;;;;4945195;28;20396;-74
2021/04/30 13:57:15;;;;;;;65.63;9.77;;;23.20;92.30;;;;;;4962271;28;20051;-74
2021/04/30 13:59:44;;;;;;;13.85;2.95;;;23.20;93.00;;;;;;4960879;28;20042;-74
2021/04/30 14:02:12;;;;;;;5.93;1.67;;;23.10;93.40;;;;;;4965048;28;20042;-74
2021/04/30 14:04:42;;;;;;;10.88;2.15;;;23.10;93.80;;;;;;4963629;28;20046;-74
2021/04/30 14:07:12;;;;;;;7.50;1.70;;;23.00;94.10;;;;;;4951300;28;20152;-74
2021/04/30 14:09:40;;;;;;;7.15;1.85;;;23.00;94.30;;;;;;4962879;28;20496;-74
2021/04/30 14:12:10;;;;;;;6.22;1.70;;;22.80;94.60;;;;;;4961632;28;20042;-74
2021/04/30 14:14:39;;;;;;;5.65;1.80;;;22.80;94.70;;;;;;4959944;28;20050;-74
2021/04/30 14:17:06;;;;;;;5.10;1.85;;;22.70;95.20;;;;;;4962722;28;20043;-74
2021/04/30 14:19:35;;;;;;;3.40;1.55;;;22.60;94.80;;;;;;4944194;28;20035;-74
2021/04/30 14:22:04;;;;;;;2.90;1.40;;;22.50;95.40;;;;;;4959795;28;20416;-74
2021/04/30 14:24:35;;;;;;;3.58;1.42;;;22.50;96.20;;;;;;4959050;28;20046;-74
2021/04/30 14:27:05;;;;;;;7.20;2.25;;;22.50;96.60;;;;;;4945683;28;20082;-73
2021/04/30 14:29:35;;;;;;;3.92;1.20;;;22.40;96.20;;;;;;4962769;28;20046;-74
2021/04/30 14:32:04;;;;;;;3.53;1.17;;;22.30;95.90;;;;;;4963146;28;20524;-74
2021/04/30 14:34:32;;;;;;;3.20;1.20;;;22.20;96.50;;;;;;4958676;28;20044;-74
2021/04/30 14:37:20;;;;;;;3.10;1.20;;;22.10;96.10;;;;;;4956666;28;20046;-73
2021/04/30 14:39:49;;;;;;;4.72;1.10;;;22.00;96.20;;;;;;4945680;28;20400;-74
2021/04/30 14:42:18;;;;;;;3.42;1.10;;;22.00;96.50;;;;;;4959873;28;20170;-74
2021/04/30 14:44:45;;;;;;;4.30;1.30;;;22.00;96.70;;;;;;4943546;28;20047;-74
2021/04/30 14:47:13;;;;;;;4.60;1.42;;;22.00;96.70;;;;;;4959159;28;20580;-74
2021/04/30 14:49:42;;;;;;;5.45;1.52;;;22.00;96.70;;;;;;4947163;28;20137;-74
2021/04/30 14:52:10;;;;;;;4.93;1.33;;;21.80;96.70;;;;;;4961406;28;20039;-74
2021/04/30 14:54:40;;;;;;;4.53;1.60;;;21.70;96.70;;;;;;4964045;28;20065;-73
2021/04/30 14:57:10;;;;;;;6.35;1.73;;;21.60;96.70;;;;;;4944098;28;20057;-74
2021/04/30 14:59:39;;;;;;;5.80;2.50;;;21.40;96.70;;;;;;4962005;28;20055;-74
2021/04/30 15:02:07;;;;;;;6.65;1.88;;;21.00;96.70;;;;;;4946634;28;20046;-74
2021/04/30 15:04:35;;;;;;;7.28;1.90;;;20.80;96.70;;;;;;4932677;28;20053;-74
2021/04/30 15:07:03;;;;;;;9.35;2.63;;;20.70;96.70;;;;;;4960631;28;20081;-74
2021/04/30 15:09:31;;;;;;;8.10;2.20;;;20.70;96.70;;;;;;4947679;28;20129;-73
2021/04/30 15:11:59;;;;;;;6.88;1.98;;;20.60;96.70;;;;;;4960327;28;20484;-73
2021/04/30 15:14:28;;;;;;;5.65;2.03;;;20.60;96.70;;;;;;4961508;28;20062;-74
2021/04/30 15:16:56;;;;;;;7.68;2.20;;;20.50;96.70;;;;;;4945802;28;20398;-74
2021/04/30 15:19:29;;;;;;;5.68;1.80;;;20.50;96.70;;;;;;4946026;28;20050;-74
2021/04/30 15:21:57;;;;;;;3.75;1.88;;;20.40;96.70;;;;;;4960795;28;20047;-74
2021/04/30 15:24:24;;;;;;;6.00;1.60;;;20.40;96.70;;;;;;4949595;28;20134;-74
2021/04/30 15:26:52;;;;;;;6.53;2.05;;;20.30;96.70;;;;;;4927119;28;20054;-74
2021/04/30 15:29:20;;;;;;;6.45;2.13;;;20.30;96.70;;;;;;4940971;28;20043;-74
2021/04/30 15:31:48;;;;;;;4.30;1.90;;;20.40;96.70;;;;;;4942291;28;20039;-73
2021/04/30 15:34:16;;;;;;;4.93;1.60;;;20.90;96.70;;;;;;4944739;28;20032;-74
2021/04/30 15:36:44;;;;;;;3.83;1.40;;;21.50;96.70;;;;;;4941796;28;20062;-74
2021/04/30 15:39:11;;;;;;;6.22;2.10;;;21.90;96.70;;;;;;4961308;28;20050;-74
2021/04/30 15:41:43;;;;;;;6.97;2.20;;;21.80;96.70;;;;;;4942422;28;20043;-74
2021/04/30 15:44:11;;;;;;;5.75;1.95;;;21.70;96.70;;;;;;4939860;28;20604;-74
2021/04/30 15:46:38;;;;;;;4.90;1.52;;;21.60;96.70;;;;;;4940497;28;20051;-74
2021/04/30 15:49:08;;;;;;;5.88;1.85;;;21.60;96.70;;;;;;4940478;28;20569;-74
2021/04/30 15:51:35;;;;;;;7.78;1.77;;;21.50;96.70;;;;;;4945054;28;20039;-74
2021/04/30 15:54:07;;;;;;;6.45;1.60;;;21.40;96.70;;;;;;4960584;28;20071;-74
2021/04/30 15:56:34;;;;;;;4.78;1.70;;;21.20;96.70;;;;;;4948196;28;20476;-73
2021/04/30 15:59:03;;;;;;;7.88;1.60;;;21.00;96.70;;;;;;4939356;28;20147;-74
2021/04/30 16:01:31;;;;;;;4.78;1.48;;;20.80;96.70;;;;;;4943200;28;20047;-74
2021/04/30 16:03:58;;;;;;;7.15;1.50;;;20.70;96.70;;;;;;4946726;28;20042;-74